createdAt,value
2024-02-11T00:02:18.766Z,7.55
2024-02-11T00:06:31.519Z,5.13
2024-02-11T00:10:43.986Z,6.78
2024-02-11T00:14:57.460Z,7.10
2024-02-11T00:19:10.156Z,8.02
2024-02-11T00:23:26.101Z,8.73
2024-02-11T00:27:50.497Z,7.05
2024-02-11T00:32:02.905Z,19.50
2024-02-11T00:36:17.566Z,29.60
2024-02-11T00:40:30.002Z,17.75
2024-02-11T00:44:43.535Z,14.07
2024-02-11T00:48:55.926Z,32.67
2024-02-11T00:53:08.369Z,29.13
2024-02-11T00:57:21.681Z,18.33
2024-02-11T01:01:34.076Z,17.13
2024-02-11T01:05:46.934Z,15.90
2024-02-11T01:09:59.627Z,8.68
2024-02-11T01:14:12.318Z,11.40
2024-02-11T01:18:24.734Z,10.15
2024-02-11T01:22:43.774Z,14.48
2024-02-11T01:26:58.315Z,10.90
2024-02-11T01:31:10.706Z,13.68
2024-02-11T01:35:23.221Z,11.57
2024-02-11T01:39:36.237Z,13.48
2024-02-11T01:43:48.690Z,11.18
2024-02-11T01:48:01.136Z,13.40
2024-02-11T01:52:14.950Z,9.73
2024-02-11T01:56:27.442Z,10.15
2024-02-11T02:00:39.949Z,9.18
2024-02-11T02:04:53.738Z,11.40
2024-02-11T02:09:06.232Z,9.00
2024-02-11T02:13:20.166Z,6.78
2024-02-11T02:17:32.593Z,9.43
2024-02-11T02:21:53.148Z,8.98
2024-02-11T02:26:10.196Z,8.75
2024-02-11T02:30:23.966Z,8.73
2024-02-11T02:34:36.355Z,7.85
2024-02-11T02:38:49.062Z,7.22
2024-02-11T02:43:08.507Z,6.70
2024-02-11T02:47:20.996Z,9.32
2024-02-11T02:51:33.555Z,11.02
2024-02-11T02:55:45.892Z,9.25
2024-02-11T02:59:59.482Z,8.27
2024-02-11T03:04:13.465Z,8.98
2024-02-11T03:08:27.276Z,12.77
2024-02-11T03:12:39.648Z,8.80
2024-02-11T03:16:52.044Z,13.88
2024-02-11T03:21:04.685Z,12.15
2024-02-11T03:25:17.224Z,13.63
2024-02-11T03:29:29.529Z,7.80
2024-02-11T03:33:42.044Z,11.43
2024-02-11T03:37:54.841Z,13.25
2024-02-11T03:42:07.198Z,11.43
2024-02-11T03:46:23.827Z,13.20
2024-02-11T03:50:36.166Z,11.15
2024-02-11T03:54:48.633Z,7.95
2024-02-11T03:59:01.450Z,15.70
2024-02-11T04:03:14.535Z,15.85
2024-02-11T04:07:27.324Z,17.15
2024-02-11T04:11:39.720Z,16.75
2024-02-11T04:15:57.791Z,22.25
2024-02-11T04:20:16.813Z,18.23
2024-02-11T04:24:29.938Z,20.00
2024-02-11T04:28:42.854Z,13.95
2024-02-11T04:32:55.588Z,18.08
2024-02-11T04:37:08.109Z,13.85
2024-02-11T04:41:20.664Z,19.50
2024-02-11T04:45:33.130Z,15.38
2024-02-11T04:49:45.915Z,20.77
2024-02-11T04:53:59.068Z,26.38
2024-02-11T04:58:17.566Z,21.65
2024-02-11T05:02:31.636Z,23.63
2024-02-11T05:06:44.826Z,28.90
2024-02-11T05:10:57.909Z,21.52
2024-02-11T05:15:10.533Z,22.48
2024-02-11T05:19:22.946Z,17.90
2024-02-11T05:23:35.249Z,21.63
2024-02-11T05:27:58.417Z,20.90
2024-02-11T05:32:13.164Z,22.08
2024-02-11T05:36:25.669Z,20.33
2024-02-11T05:40:47.143Z,22.13
2024-02-11T05:44:59.611Z,18.50
2024-02-11T05:49:13.254Z,23.98
2024-02-11T05:53:25.659Z,20.25
2024-02-11T05:57:40.424Z,16.35
2024-02-11T06:01:53.115Z,19.90
2024-02-11T06:06:08.309Z,21.02
2024-02-11T06:10:21.664Z,16.15
2024-02-11T06:14:35.330Z,13.55
2024-02-11T06:18:47.712Z,13.90
2024-02-11T06:23:00.112Z,14.60
2024-02-11T06:27:13.614Z,14.57
2024-02-11T06:31:26.481Z,15.75
2024-02-11T06:35:38.861Z,12.45
2024-02-11T06:39:53.017Z,13.10
2024-02-11T06:44:07.654Z,17.20
2024-02-11T06:48:20.686Z,13.85
2024-02-11T06:52:34.292Z,15.38
2024-02-11T06:56:48.845Z,18.30
2024-02-11T07:01:01.301Z,13.38
2024-02-11T07:05:13.754Z,15.05
2024-02-11T07:09:26.133Z,9.13
2024-02-11T07:13:42.536Z,14.07
2024-02-11T07:17:55.474Z,19.10
2024-02-11T07:22:07.960Z,21.13
2024-02-11T07:26:20.442Z,18.65
2024-02-11T07:30:32.760Z,22.42
2024-02-11T07:34:45.225Z,24.60
2024-02-11T07:38:57.770Z,30.27
2024-02-11T07:43:11.282Z,26.60
2024-02-11T07:47:26.553Z,34.00
2024-02-11T07:51:44.309Z,28.30
2024-02-11T07:55:56.692Z,26.45
2024-02-11T08:00:09.484Z,26.33
2024-02-11T08:04:22.054Z,28.58
2024-02-11T08:08:38.806Z,32.20
2024-02-11T08:12:53.946Z,32.35
2024-02-11T08:17:07.272Z,28.80
2024-02-11T08:21:20.968Z,25.33
2024-02-11T08:25:33.878Z,28.45
2024-02-11T08:29:49.047Z,30.55
2024-02-11T08:34:02.370Z,31.48
2024-02-11T08:38:15.484Z,34.95
2024-02-11T08:42:30.854Z,34.60
2024-02-11T08:46:43.262Z,37.47
2024-02-11T08:50:56.201Z,33.08
2024-02-11T08:55:09.241Z,31.73
2024-02-11T08:59:21.726Z,29.67
2024-02-11T09:03:34.163Z,27.77
2024-02-11T09:07:48.208Z,31.73
2024-02-11T09:12:01.116Z,30.38
2024-02-11T09:16:13.909Z,28.92
2024-02-11T09:20:26.436Z,32.28
2024-02-11T09:24:42.689Z,34.13
2024-02-11T09:28:55.834Z,35.17
2024-02-11T09:33:08.288Z,35.03
2024-02-11T09:37:20.656Z,27.92
2024-02-11T09:41:34.491Z,39.80
2024-02-11T09:45:49.011Z,34.97
2024-02-11T09:50:05.656Z,36.83
2024-02-11T09:54:20.024Z,32.17
2024-02-11T09:58:34.683Z,35.58
2024-02-11T10:02:50.471Z,39.45
2024-02-11T10:07:05.267Z,33.42
2024-02-11T10:11:20.354Z,30.83
2024-02-11T10:15:39.910Z,36.13
2024-02-11T10:19:52.938Z,34.97
2024-02-11T10:24:05.570Z,34.10
2024-02-11T10:28:19.134Z,42.17
2024-02-11T10:32:36.899Z,40.38
2024-02-11T10:36:55.125Z,43.42
2024-02-11T10:41:08.250Z,38.97
2024-02-11T10:45:20.764Z,39.55
2024-02-11T10:49:33.509Z,43.28
2024-02-11T10:53:50.065Z,52.72
2024-02-11T10:58:05.333Z,41.38
2024-02-11T11:02:18.128Z,48.13
2024-02-11T11:06:33.386Z,39.65
2024-02-11T11:10:45.792Z,40.15
2024-02-11T11:14:59.256Z,39.08
2024-02-11T11:19:16.822Z,38.85
2024-02-11T11:23:30.010Z,44.38
2024-02-11T11:27:42.397Z,38.97
2024-02-11T11:31:57.530Z,41.25
2024-02-11T11:36:10.212Z,40.47
2024-02-11T11:40:24.430Z,36.85
2024-02-11T11:44:36.772Z,36.15
2024-02-11T11:48:49.224Z,43.42
2024-02-11T11:53:02.721Z,43.25
2024-02-11T11:57:15.243Z,48.35
2024-02-11T12:01:27.584Z,30.45
2024-02-11T12:05:43.530Z,33.28
2024-02-11T12:09:55.920Z,40.00
2024-02-11T12:14:10.659Z,36.15
2024-02-11T12:18:24.526Z,35.30
2024-02-11T12:22:37.549Z,31.02
2024-02-11T12:26:50.156Z,31.08
2024-02-11T12:31:20.976Z,39.88
2024-02-11T12:35:37.583Z,35.65
2024-02-11T12:39:50.130Z,39.03
2024-02-11T12:44:06.580Z,33.60
2024-02-11T12:48:19.116Z,34.33
2024-02-11T12:52:35.499Z,35.63
2024-02-11T12:56:47.874Z,40.97
2024-02-11T13:01:01.254Z,38.58
2024-02-11T13:05:17.643Z,43.08
2024-02-11T13:09:33.421Z,38.30
2024-02-11T13:13:47.665Z,34.47
2024-02-11T13:18:00.313Z,33.92
2024-02-11T13:22:15.782Z,36.25
2024-02-11T13:26:28.637Z,40.72
2024-02-11T13:30:42.606Z,35.55
2024-02-11T13:34:55.144Z,39.75
2024-02-11T13:39:07.577Z,37.25
2024-02-11T13:43:20.774Z,38.45
2024-02-11T13:47:36.275Z,40.58
2024-02-11T13:51:49.994Z,48.03
2024-02-11T13:56:02.505Z,45.45
2024-02-11T14:00:17.329Z,50.70
2024-02-11T14:04:35.115Z,46.80
2024-02-11T14:08:47.777Z,52.92
2024-02-11T14:13:04.981Z,40.15
2024-02-11T14:17:17.507Z,43.42
2024-02-11T14:21:29.850Z,44.20
2024-02-11T14:25:43.646Z,50.33
2024-02-11T14:29:55.981Z,41.72
2024-02-11T14:34:10.018Z,43.28
2024-02-11T14:38:22.715Z,44.80
2024-02-11T14:42:34.982Z,34.05
2024-02-11T14:46:47.970Z,34.13
2024-02-11T14:51:00.964Z,39.80
2024-02-11T14:55:14.408Z,38.08
2024-02-11T14:59:30.015Z,26.13
2024-02-11T15:03:44.202Z,30.10
2024-02-11T15:07:57.252Z,24.90
2024-02-11T15:12:11.244Z,32.22
2024-02-11T15:16:23.863Z,24.58
2024-02-11T15:20:36.687Z,26.92
2024-02-11T15:24:50.283Z,27.35
2024-02-11T15:29:02.758Z,28.92
2024-02-11T15:33:15.582Z,22.15
2024-02-11T15:37:28.409Z,22.35
2024-02-11T15:41:42.750Z,22.67
2024-02-11T15:45:55.136Z,29.60
2024-02-11T15:50:11.004Z,25.55
2024-02-11T15:54:23.842Z,25.05
2024-02-11T15:58:36.625Z,28.38
2024-02-11T16:02:49.209Z,23.65
2024-02-11T16:07:04.082Z,29.48
2024-02-11T16:11:16.748Z,26.67
2024-02-11T16:15:30.906Z,37.22
2024-02-11T16:19:43.508Z,23.15
2024-02-11T16:23:55.945Z,28.92
2024-02-11T16:28:08.579Z,30.70
2024-02-11T16:32:24.414Z,28.30
2024-02-11T16:36:38.873Z,34.20
2024-02-11T16:40:51.337Z,40.15
2024-02-11T16:45:04.169Z,28.30
2024-02-11T16:49:16.639Z,32.63
2024-02-11T16:53:29.700Z,31.77
2024-02-11T16:57:42.284Z,32.70
2024-02-11T17:01:56.899Z,37.60
2024-02-11T17:06:16.063Z,36.83
2024-02-11T17:10:28.866Z,36.72
2024-02-11T17:14:44.604Z,36.33
2024-02-11T17:18:57.986Z,41.42
2024-02-11T17:23:11.354Z,47.53
2024-02-11T17:27:23.947Z,38.40
2024-02-11T17:31:43.649Z,43.45
2024-02-11T17:35:59.843Z,35.85
2024-02-11T17:40:12.983Z,38.80
2024-02-11T17:44:25.588Z,37.97
2024-02-11T17:48:39.702Z,36.30
2024-02-11T17:52:52.209Z,37.75
2024-02-11T17:57:04.914Z,28.70
2024-02-11T18:01:18.875Z,35.47
2024-02-11T18:05:31.716Z,28.85
2024-02-11T18:09:44.424Z,28.70
2024-02-11T18:13:57.190Z,21.30
2024-02-11T18:18:09.577Z,16.75
2024-02-11T18:22:22.143Z,14.52
2024-02-11T18:26:34.636Z,13.68
2024-02-11T18:30:47.259Z,16.73
2024-02-11T18:35:00.341Z,14.23
2024-02-11T18:39:16.045Z,10.48
2024-02-11T18:43:28.555Z,11.35
2024-02-11T18:47:41.080Z,10.70
2024-02-11T18:51:53.654Z,9.48
2024-02-11T18:56:08.250Z,9.55
2024-02-11T19:00:21.946Z,9.32
2024-02-11T19:04:34.710Z,12.80
2024-02-11T19:08:47.251Z,10.30
2024-02-11T19:12:59.578Z,12.07
2024-02-11T19:17:15.041Z,8.15
2024-02-11T19:21:27.612Z,9.02
2024-02-11T19:25:40.112Z,8.88
2024-02-11T19:29:52.379Z,9.30
2024-02-11T19:34:05.881Z,8.30
2024-02-11T19:38:20.735Z,7.57
2024-02-11T19:42:33.884Z,9.25
2024-02-11T19:46:46.346Z,8.75
2024-02-11T19:51:02.242Z,9.52
2024-02-11T19:55:15.175Z,12.38
2024-02-11T19:59:27.827Z,8.48
2024-02-11T20:03:41.124Z,8.00
2024-02-11T20:07:57.126Z,7.38
2024-02-11T20:12:10.411Z,8.60
2024-02-11T20:16:22.872Z,9.65
2024-02-11T20:20:36.623Z,8.35
2024-02-11T20:24:49.055Z,10.98
2024-02-11T20:29:01.546Z,10.73
2024-02-11T20:33:15.196Z,9.52
2024-02-11T20:37:27.672Z,8.40
2024-02-11T20:41:41.432Z,5.78
2024-02-11T20:45:54.193Z,11.45
2024-02-11T20:50:08.648Z,11.55
2024-02-11T20:54:21.209Z,6.80
2024-02-11T20:58:35.016Z,12.82
2024-02-11T21:02:47.691Z,13.98
2024-02-11T21:07:00.995Z,10.00
2024-02-11T21:11:13.733Z,10.40
2024-02-11T21:15:26.541Z,10.55
2024-02-11T21:19:38.903Z,11.32
2024-02-11T21:23:51.873Z,17.23
2024-02-11T21:28:04.418Z,13.35
2024-02-11T21:32:17.757Z,18.02
2024-02-11T21:36:30.260Z,18.08
2024-02-11T21:40:43.587Z,9.55
2024-02-11T21:44:55.996Z,15.40
2024-02-11T21:49:11.189Z,15.77
2024-02-11T21:53:23.665Z,12.27
2024-02-11T21:57:36.080Z,11.00
2024-02-11T22:01:49.695Z,16.27
2024-02-11T22:06:02.307Z,8.63
2024-02-11T22:10:14.804Z,11.10
2024-02-11T22:14:27.168Z,11.55
2024-02-11T22:18:39.588Z,17.25
2024-02-11T22:22:53.416Z,16.20
2024-02-11T22:27:07.418Z,17.75
2024-02-11T22:31:20.039Z,17.52
2024-02-11T22:35:33.987Z,16.75
2024-02-11T22:39:49.116Z,19.55
2024-02-11T22:44:03.464Z,17.38
2024-02-11T22:48:16.022Z,20.95
2024-02-11T22:52:29.600Z,24.25
2024-02-11T22:56:43.408Z,17.27
2024-02-11T23:00:56.495Z,16.35
2024-02-11T23:05:09.244Z,22.38
2024-02-11T23:09:24.166Z,20.33
2024-02-11T23:13:36.524Z,18.60
2024-02-11T23:17:50.546Z,21.67
2024-02-11T23:22:06.273Z,16.23
2024-02-11T23:26:18.909Z,19.98
2024-02-11T23:30:31.715Z,18.20
2024-02-11T23:34:44.078Z,22.45
2024-02-11T23:38:56.564Z,13.73
2024-02-11T23:43:10.335Z,16.05
2024-02-11T23:47:23.182Z,20.30
2024-02-11T23:51:35.822Z,16.77
2024-02-11T23:55:50.968Z,21.17
